Time;durP1;ratioP1;P1;durP2;ratioP2;P2;SDS_P1;SDS_P2;PMS_P1;PMS_P2;Temp;Humidity;BMP_temperature;BMP_pressure;BME280_temperature;BME280_humidity;BME280_pressure;Samples;Min_cycle;Max_cycle;Signal;HPM_P1;HPM_P2
2023/04/04 00:01:24;;;;;;;5.93;2.58;;;3.20;99.90;;;;;;5075165;28;20040;-79
2023/04/04 00:03:50;;;;;;;4.50;2.47;;;3.20;99.90;;;;;;5076581;28;20044;-80
2023/04/04 00:06:20;;;;;;;6.85;2.40;;;3.30;99.90;;;;;;5059243;28;20043;-80
2023/04/04 00:08:46;;;;;;;5.50;2.50;;;3.20;99.90;;;;;;5075619;28;20092;-80
2023/04/04 00:11:12;;;;;;;4.45;2.55;;;3.40;99.90;;;;;;5087780;28;20051;-80
2023/04/04 00:13:41;;;;;;;6.28;2.70;;;2.90;99.90;;;;;;5093113;28;20047;-80
2023/04/04 00:16:07;;;;;;;5.72;2.50;;;4.00;99.90;;;;;;5066943;28;20036;-80
2023/04/04 00:18:33;;;;;;;7.53;2.58;;;3.70;99.90;;;;;;5091196;28;20495;-79
2023/04/04 00:20:58;;;;;;;3.78;2.13;;;2.80;99.90;;;;;;5055269;28;20079;-78
2023/04/04 00:23:24;;;;;;;5.88;2.63;;;3.20;99.90;;;;;;5038720;28;20047;-79
2023/04/04 00:25:51;;;;;;;4.78;2.42;;;3.60;99.90;;;;;;5038789;28;20044;-80
2023/04/04 00:28:20;;;;;;;6.57;2.40;;;2.70;99.90;;;;;;5071453;28;20045;-80
2023/04/04 00:30:46;;;;;;;7.38;2.90;;;2.70;99.90;;;;;;5055233;28;20071;-80
2023/04/04 00:33:13;;;;;;;6.43;2.92;;;2.70;99.90;;;;;;5071871;28;20521;-80
2023/04/04 00:35:39;;;;;;;6.63;3.38;;;3.80;99.90;;;;;;5071657;28;20106;-80
2023/04/04 00:38:05;;;;;;;6.20;3.00;;;2.60;99.90;;;;;;5084086;28;20036;-79
2023/04/04 00:40:31;;;;;;;7.93;3.03;;;2.60;99.90;;;;;;5071416;28;20032;-80
2023/04/04 00:42:59;;;;;;;5.45;2.90;;;2.60;99.90;;;;;;5055142;28;20106;-80
2023/04/04 00:45:26;;;;;;;6.57;3.20;;;2.50;99.90;;;;;;5055519;28;20044;-79
2023/04/04 00:47:54;;;;;;;6.15;2.72;;;3.40;99.90;;;;;;5063857;28;20525;-80
2023/04/04 00:50:19;;;;;;;8.38;3.15;;;2.50;99.90;;;;;;5091818;28;20100;-80
2023/04/04 00:52:45;;;;;;;5.65;3.45;;;2.50;99.90;;;;;;5057964;28;20040;-79
2023/04/04 00:55:11;;;;;;;7.97;3.17;;;2.40;99.90;;;;;;5057554;28;20067;-79
2023/04/04 00:57:37;;;;;;;7.68;3.15;;;2.50;99.90;;;;;;5058478;28;20036;-80
2023/04/04 01:00:05;;;;;;;6.00;2.92;;;2.40;99.90;;;;;;5062163;28;20037;-80
2023/04/04 01:02:31;;;;;;;6.93;3.03;;;2.40;99.90;;;;;;5055259;28;20077;-81
2023/04/04 01:04:59;;;;;;;6.68;3.22;;;2.40;99.90;;;;;;5038638;28;20040;-80
2023/04/04 01:07:25;;;;;;;3.97;2.50;;;2.60;99.90;;;;;;5071954;28;20040;-80
2023/04/04 01:09:51;;;;;;;4.70;3.25;;;3.40;99.90;;;;;;5066480;28;20040;-80
2023/04/04 01:12:18;;;;;;;6.10;3.33;;;3.50;99.90;;;;;;5092512;28;20047;-80
2023/04/04 01:14:43;;;;;;;8.23;3.40;;;3.00;99.90;;;;;;5095248;28;20480;-80
2023/04/04 01:17:10;;;;;;;6.35;3.03;;;2.20;99.90;;;;;;5079631;28;20089;-79
2023/04/04 01:19:45;;;;;;;5.78;3.33;;;2.20;99.90;;;;;;5078443;28;20090;-79
2023/04/04 01:22:13;;;;;;;9.50;3.58;;;2.20;99.90;;;;;;5075714;28;20087;-79
2023/04/04 01:24:42;;;;;;;5.90;3.00;;;2.90;99.90;;;;;;5069742;28;20040;-81
2023/04/04 01:27:07;;;;;;;5.38;3.13;;;2.20;99.90;;;;;;5078415;28;20051;-80
2023/04/04 01:29:33;;;;;;;7.85;3.42;;;2.40;99.90;;;;;;5062758;28;20048;-80
2023/04/04 01:32:15;;;;;;;10.35;3.72;;;2.90;99.90;;;;;;5062064;28;20051;-80
2023/04/04 01:35:00;;;;;;;7.10;2.90;;;2.00;99.90;;;;;;5079017;28;20047;-80
2023/04/04 01:37:36;;;;;;;8.05;3.45;;;2.00;99.90;;;;;;5078493;28;20058;-80
2023/04/04 01:40:15;;;;;;;6.88;3.53;;;2.00;99.90;;;;;;5095554;28;20047;-80
2023/04/04 01:42:42;;;;;;;6.18;3.03;;;2.80;99.90;;;;;;5095510;28;20040;-80
2023/04/04 01:45:08;;;;;;;8.80;4.03;;;1.90;99.90;;;;;;5078549;28;20048;-79
2023/04/04 01:47:41;;;;;;;8.02;3.28;;;1.90;99.90;;;;;;5074584;28;20047;-79
2023/04/04 01:50:09;;;;;;;6.68;3.67;;;2.80;99.90;;;;;;5058066;28;20051;-80
2023/04/04 01:52:35;;;;;;;6.93;3.60;;;1.80;99.90;;;;;;5041499;28;20076;-79
2023/04/04 01:55:02;;;;;;;13.55;3.83;;;1.80;99.90;;;;;;5074747;28;20036;-79
2023/04/04 01:57:28;;;;;;;6.63;3.90;;;1.70;99.90;;;;;;5058489;28;20079;-79
2023/04/04 01:59:54;;;;;;;8.40;3.88;;;2.00;99.90;;;;;;5074709;28;20045;-80
2023/04/04 02:02:20;;;;;;;7.03;3.95;;;2.70;99.90;;;;;;5032816;28;20044;-78
2023/04/04 02:04:46;;;;;;;10.18;3.70;;;1.70;99.90;;;;;;5074640;28;20499;-80
2023/04/04 02:07:13;;;;;;;12.23;4.28;;;1.70;99.90;;;;;;5057826;28;20488;-80
2023/04/04 02:09:39;;;;;;;7.80;3.65;;;1.60;99.90;;;;;;5075764;28;20049;-79
2023/04/04 02:12:05;;;;;;;6.35;3.50;;;1.60;99.90;;;;;;5053645;28;20072;-79
2023/04/04 02:14:30;;;;;;;8.57;4.72;;;1.60;99.90;;;;;;5063883;28;20149;-81
2023/04/04 02:16:57;;;;;;;9.20;3.90;;;1.50;99.90;;;;;;5053539;28;21798;-79
2023/04/04 02:19:23;;;;;;;6.40;3.72;;;1.50;99.90;;;;;;5046112;28;20543;-80
2023/04/04 02:21:49;;;;;;;8.27;3.83;;;1.50;99.90;;;;;;5090658;28;20040;-79
2023/04/04 02:24:15;;;;;;;6.45;3.78;;;1.50;99.90;;;;;;5070256;28;20037;-79
2023/04/04 02:26:40;;;;;;;6.43;3.97;;;2.00;99.90;;;;;;5076443;28;20100;-79
2023/04/04 02:29:06;;;;;;;6.75;3.80;;;1.40;99.90;;;;;;5097270;28;20048;-80
2023/04/04 02:31:33;;;;;;;8.02;3.97;;;1.60;99.90;;;;;;5062007;27;20156;-80
2023/04/04 02:33:58;;;;;;;7.95;4.18;;;2.20;99.90;;;;;;5078631;28;20602;-80
2023/04/04 02:36:24;;;;;;;7.03;4.18;;;1.40;99.90;;;;;;5060753;28;20078;-79
2023/04/04 02:38:50;;;;;;;10.10;4.32;;;1.30;99.90;;;;;;5092616;28;20032;-80
2023/04/04 02:41:15;;;;;;;9.00;4.60;;;1.70;99.90;;;;;;5076692;28;20036;-80
2023/04/04 02:43:41;;;;;;;8.82;4.55;;;1.70;99.90;;;;;;5072036;28;20071;-79
2023/04/04 02:46:07;;;;;;;7.80;4.13;;;1.30;99.90;;;;;;5092172;28;20040;-80
2023/04/04 02:48:33;;;;;;;7.93;4.40;;;1.20;99.90;;;;;;5091531;28;20040;-80
2023/04/04 02:50:59;;;;;;;6.75;4.20;;;1.30;99.90;;;;;;5042748;28;20043;-80
2023/04/04 02:53:25;;;;;;;7.15;4.30;;;1.20;99.90;;;;;;5080507;28;20036;-79
2023/04/04 02:55:50;;;;;;;6.80;4.68;;;2.00;99.90;;;;;;5080153;28;20471;-78
2023/04/04 02:58:16;;;;;;;7.95;4.30;;;1.10;99.90;;;;;;5080318;28;20036;-80
2023/04/04 03:00:42;;;;;;;6.55;3.78;;;1.10;99.90;;;;;;5064072;28;20491;-80
2023/04/04 03:03:08;;;;;;;8.55;4.20;;;1.40;99.90;;;;;;5076353;28;20048;-79
2023/04/04 03:05:33;;;;;;;7.53;4.15;;;1.50;99.90;;;;;;5060262;28;20127;-80
2023/04/04 03:07:59;;;;;;;10.07;4.55;;;1.10;99.90;;;;;;5050340;28;20048;-80
2023/04/04 03:10:30;;;;;;;8.13;4.25;;;2.70;99.90;;;;;;5079556;28;20430;-79
2023/04/04 03:12:56;;;;;;;7.93;4.30;;;1.00;99.90;;;;;;5096611;28;20039;-79
2023/04/04 03:15:22;;;;;;;8.73;4.10;;;2.00;99.90;;;;;;5062205;28;20548;-80
2023/04/04 03:17:48;;;;;;;7.20;4.50;;;0.90;99.90;;;;;;5057772;28;20036;-79
2023/04/04 03:20:15;;;;;;;5.93;4.18;;;2.10;99.90;;;;;;5079531;28;20043;-79
2023/04/04 03:22:41;;;;;;;8.40;4.30;;;0.90;99.90;;;;;;5096683;28;20051;-79
2023/04/04 03:25:07;;;;;;;7.40;4.40;;;0.80;99.90;;;;;;5096191;28;21870;-80
2023/04/04 03:27:33;;;;;;;8.18;4.43;;;0.80;99.90;;;;;;5079305;28;20051;-80
2023/04/04 03:29:59;;;;;;;8.68;4.47;;;0.80;99.90;;;;;;5049015;28;20182;-79
2023/04/04 03:32:26;;;;;;;7.35;4.15;;;0.80;99.90;;;;;;5074371;28;20040;-79
2023/04/04 03:34:52;;;;;;;7.95;4.47;;;0.80;99.90;;;;;;5049983;28;20047;-80
2023/04/04 03:37:17;;;;;;;8.38;4.13;;;1.30;99.90;;;;;;5055523;28;20036;-80
2023/04/04 03:39:43;;;;;;;8.68;4.30;;;0.70;99.90;;;;;;5075458;28;20020;-80
2023/04/04 03:42:09;;;;;;;9.23;4.40;;;0.70;99.90;;;;;;5090249;28;20040;-79
2023/04/04 03:44:38;;;;;;;7.28;4.55;;;1.50;99.90;;;;;;5077775;28;20427;-80
2023/04/04 03:47:04;;;;;;;8.60;4.45;;;1.00;99.90;;;;;;5075492;28;20537;-80
2023/04/04 03:49:31;;;;;;;8.75;4.25;;;0.60;99.90;;;;;;5067825;28;20040;-80
2023/04/04 03:51:57;;;;;;;10.77;5.03;;;0.60;99.90;;;;;;5071513;28;20383;-80
2023/04/04 03:54:23;;;;;;;9.05;4.55;;;0.60;99.90;;;;;;5072521;28;20102;-79
2023/04/04 03:56:50;;;;;;;7.63;4.32;;;0.50;99.90;;;;;;5072895;28;20123;-80
2023/04/04 03:59:16;;;;;;;10.52;5.03;;;0.50;99.90;;;;;;5039352;28;20542;-80
2023/04/04 04:01:42;;;;;;;8.20;4.38;;;0.50;99.90;;;;;;5066181;28;20043;-80
2023/04/04 04:04:07;;;;;;;8.07;4.35;;;0.60;99.90;;;;;;5059059;28;20082;-80
2023/04/04 04:06:33;;;;;;;9.73;4.53;;;0.40;99.90;;;;;;5075609;28;20407;-79
2023/04/04 04:09:00;;;;;;;8.43;4.28;;;2.00;99.90;;;;;;5075806;28;20125;-80
2023/04/04 04:11:25;;;;;;;7.40;4.57;;;2.00;99.90;;;;;;5059217;28;20123;-80
2023/04/04 04:13:51;;;;;;;9.38;4.28;;;0.40;99.90;;;;;;5059154;28;20123;-79
2023/04/04 04:16:17;;;;;;;8.82;4.30;;;0.40;99.90;;;;;;5058070;28;20384;-79
2023/04/04 04:18:42;;;;;;;10.05;4.53;;;0.30;99.90;;;;;;5055285;28;20041;-81
2023/04/04 04:21:08;;;;;;;9.75;4.60;;;1.20;99.90;;;;;;5038926;28;20032;-79
2023/04/04 04:23:34;;;;;;;6.57;4.25;;;1.90;99.90;;;;;;5055779;28;20051;-80
2023/04/04 04:25:59;;;;;;;9.02;4.38;;;0.30;99.90;;;;;;5055654;28;20040;-80
2023/04/04 04:28:25;;;;;;;17.95;5.45;;;0.30;99.90;;;;;;5055678;28;20048;-79
2023/04/04 04:30:51;;;;;;;9.13;4.38;;;0.20;99.90;;;;;;5069225;28;20050;-80
2023/04/04 04:33:18;;;;;;;8.43;4.18;;;0.20;99.90;;;;;;5075193;28;20063;-80
2023/04/04 04:35:44;;;;;;;9.63;4.60;;;1.20;99.90;;;;;;5075128;28;20044;-79
2023/04/04 04:38:10;;;;;;;10.35;5.00;;;0.40;99.90;;;;;;5074962;28;20044;-79
2023/04/04 04:40:36;;;;;;;7.63;4.18;;;0.10;99.90;;;;;;5055184;28;20035;-79
2023/04/04 04:43:02;;;;;;;7.93;4.20;;;0.10;99.90;;;;;;5064640;28;20051;-79
2023/04/04 04:45:27;;;;;;;9.68;4.63;;;0.10;99.90;;;;;;5044344;28;20036;-81
2023/04/04 04:47:53;;;;;;;7.65;4.93;;;0.10;99.90;;;;;;5044342;28;20384;-80
2023/04/04 04:50:19;;;;;;;6.95;4.22;;;0.00;99.90;;;;;;5079655;28;20047;-80
2023/04/04 04:52:51;;;;;;;9.85;4.90;;;0.10;99.90;;;;;;5093834;28;20040;-81
2023/04/04 04:55:17;;;;;;;7.38;4.30;;;0.00;99.90;;;;;;5098317;28;20052;-79
2023/04/04 04:57:45;;;;;;;9.13;4.55;;;0.00;99.90;;;;;;5079542;28;20101;-80
2023/04/04 05:00:12;;;;;;;7.75;4.47;;;0.30;99.90;;;;;;5061473;28;20115;-80
2023/04/04 05:02:40;;;;;;;9.57;5.05;;;0.00;99.90;;;;;;5027575;28;20094;-90
2023/04/04 05:05:06;;;;;;;8.43;5.30;;;0.50;99.90;;;;;;5053365;28;20499;-89
2023/04/04 05:07:32;;;;;;;9.25;4.32;;;-0.10;99.90;;;;;;5081364;28;20047;-89
2023/04/04 05:09:58;;;;;;;8.48;4.40;;;2.20;99.90;;;;;;5069795;28;20036;-90
2023/04/04 05:12:26;;;;;;;9.00;5.18;;;0.00;99.90;;;;;;5072834;28;20487;-88
2023/04/04 05:14:52;;;;;;;11.73;5.25;;;2.00;99.90;;;;;;5077888;28;20032;-89
2023/04/04 05:17:18;;;;;;;7.82;4.88;;;2.10;99.90;;;;;;5077377;28;20029;-88
2023/04/04 05:19:44;;;;;;;9.93;5.35;;;2.30;99.90;;;;;;5072711;28;20125;-89
2023/04/04 05:22:10;;;;;;;8.60;5.05;;;;;;;;;;5069330;28;20040;-91
2023/04/04 05:24:36;;;;;;;8.70;5.00;;;-0.10;99.90;;;;;;5076362;28;20032;-89
2023/04/04 05:27:01;;;;;;;13.10;5.43;;;1.10;99.90;;;;;;5081105;28;20074;-92
2023/04/04 05:29:28;;;;;;;8.13;5.00;;;2.20;99.90;;;;;;5079980;28;20123;-90
2023/04/04 05:31:54;;;;;;;8.35;4.95;;;0.80;99.90;;;;;;5080689;28;20055;-91
2023/04/04 05:34:20;;;;;;;10.98;4.95;;;-0.30;99.90;;;;;;5081016;28;20048;-91
2023/04/04 05:36:49;;;;;;;8.32;5.22;;;;;;;;;;5078012;28;20536;-91
2023/04/04 05:39:15;;;;;;;9.73;5.15;;;-0.10;99.90;;;;;;5059524;28;20071;-87
2023/04/04 05:41:41;;;;;;;8.73;4.70;;;1.20;99.90;;;;;;5061987;28;20079;-87
2023/04/04 05:44:07;;;;;;;10.07;5.25;;;-0.10;99.90;;;;;;5079254;28;20035;-93
2023/04/04 05:46:33;;;;;;;10.05;5.68;;;1.70;99.90;;;;;;5079273;28;20105;-89
2023/04/04 05:49:05;;;;;;;8.73;5.28;;;1.60;99.90;;;;;;5097967;28;20051;-91
2023/04/04 05:51:31;;;;;;;13.45;5.18;;;0.10;99.90;;;;;;5093827;28;20036;-89
2023/04/04 05:53:57;;;;;;;9.05;5.28;;;;;;;;;;5071699;28;20043;-90
2023/04/04 05:56:23;;;;;;;8.23;5.07;;;0.20;99.90;;;;;;5080564;28;20537;-90
2023/04/04 05:58:50;;;;;;;9.13;6.00;;;2.40;99.90;;;;;;5078980;28;20139;-91
2023/04/04 06:01:17;;;;;;;8.85;5.38;;;-0.50;99.90;;;;;;5077508;28;20047;-91
2023/04/04 06:03:43;;;;;;;12.75;5.30;;;0.40;99.90;;;;;;5085920;28;20138;-91
2023/04/04 06:06:09;;;;;;;9.73;5.00;;;1.60;99.90;;;;;;5076594;28;20032;-90
2023/04/04 06:08:35;;;;;;;8.45;5.45;;;;;;;;;;5083424;28;20050;-90
2023/04/04 06:11:01;;;;;;;11.77;5.55;;;0.60;99.90;;;;;;5060381;28;20145;-91
2023/04/04 06:13:27;;;;;;;9.63;5.53;;;0.80;99.90;;;;;;5073101;28;20037;-92
2023/04/04 06:15:55;;;;;;;7.63;4.90;;;2.70;99.90;;;;;;5089423;28;20040;-89
2023/04/04 06:18:21;;;;;;;9.23;4.70;;;2.50;99.90;;;;;;5077969;28;20082;-91
2023/04/04 06:20:47;;;;;;;10.45;5.05;;;2.60;99.90;;;;;;5078790;28;20035;-90
2023/04/04 06:23:13;;;;;;;12.43;5.15;;;3.00;99.90;;;;;;5078853;28;20454;-90
2023/04/04 06:25:39;;;;;;;7.95;4.68;;;2.00;99.90;;;;;;5062276;28;20161;-90
2023/04/04 06:28:05;;;;;;;7.50;4.70;;;1.70;99.90;;;;;;5070130;28;20392;-90
2023/04/04 06:30:36;;;;;;;8.60;4.85;;;1.10;99.90;;;;;;5059429;28;20076;-90
2023/04/04 06:33:05;;;;;;;7.70;4.78;;;1.30;99.90;;;;;;5059495;28;20049;-90
2023/04/04 06:35:31;;;;;;;9.18;4.55;;;1.20;99.90;;;;;;5079395;28;20040;-90
2023/04/04 06:37:57;;;;;;;8.98;5.15;;;1.10;99.90;;;;;;5080245;28;20044;-90
2023/04/04 06:40:23;;;;;;;9.73;5.20;;;2.50;99.90;;;;;;5065462;28;20124;-89
2023/04/04 06:42:57;;;;;;;10.77;5.00;;;2.90;99.90;;;;;;5079459;28;20109;-90
2023/04/04 06:45:23;;;;;;;9.02;4.85;;;2.70;99.90;;;;;;5079252;28;20047;-90
2023/04/04 06:47:52;;;;;;;11.50;5.55;;;3.70;99.90;;;;;;5079177;28;20044;-91
2023/04/04 06:50:18;;;;;;;41.75;20.27;;;2.20;99.90;;;;;;5079099;28;20044;-90
2023/04/04 06:52:44;;;;;;;26.15;14.90;;;3.40;99.90;;;;;;5079179;28;20047;-91
2023/04/04 06:55:10;;;;;;;18.30;14.07;;;3.50;99.90;;;;;;5078939;28;20047;-90
2023/04/04 06:57:37;;;;;;;13.73;8.20;;;3.10;99.90;;;;;;5063307;28;20047;-91
2023/04/04 07:00:03;;;;;;;9.55;4.80;;;3.30;99.90;;;;;;5059203;28;20075;-91
2023/04/04 07:02:30;;;;;;;9.57;4.38;;;2.20;99.90;;;;;;5059238;28;20047;-91
2023/04/04 07:04:55;;;;;;;9.05;4.88;;;3.90;99.90;;;;;;5059178;28;20048;-90
2023/04/04 07:07:21;;;;;;;6.60;5.10;;;4.60;99.90;;;;;;5067263;28;20051;-91
2023/04/04 07:09:47;;;;;;;6.18;4.05;;;3.30;99.90;;;;;;5078405;28;20078;-90
2023/04/04 07:12:13;;;;;;;6.53;4.03;;;3.80;99.90;;;;;;5077391;28;20048;-90
2023/04/04 07:14:39;;;;;;;7.75;4.00;;;4.30;99.90;;;;;;5078291;28;20036;-88
2023/04/04 07:17:05;;;;;;;5.53;3.28;;;4.60;99.90;;;;;;5081812;28;20036;-91
2023/04/04 07:19:31;;;;;;;6.63;3.83;;;;;;;;;;5095348;28;20031;-91
2023/04/04 07:21:57;;;;;;;5.88;3.13;;;4.50;99.90;;;;;;5099072;28;20039;-91
2023/04/04 07:24:22;;;;;;;7.22;3.25;;;5.10;99.90;;;;;;5078613;28;20040;-90
2023/04/04 07:26:48;;;;;;;7.05;3.50;;;4.60;99.90;;;;;;5078375;28;20040;-91
2023/04/04 07:29:14;;;;;;;6.82;3.20;;;;;;;;;;5077645;28;20048;-90
2023/04/04 07:31:40;;;;;;;6.97;3.42;;;4.60;99.90;;;;;;5077506;28;20142;-90
2023/04/04 07:34:06;;;;;;;5.25;3.20;;;5.50;99.90;;;;;;5078338;28;20040;-89
2023/04/04 07:36:32;;;;;;;5.07;2.80;;;5.60;99.90;;;;;;5077189;28;20201;-90
2023/04/04 07:38:58;;;;;;;6.35;2.72;;;6.30;99.90;;;;;;5077488;28;20082;-90
2023/04/04 07:41:26;;;;;;;5.63;2.67;;;5.40;99.90;;;;;;5078444;28;20040;-89
2023/04/04 07:43:52;;;;;;;5.85;3.17;;;5.60;99.90;;;;;;5080138;28;20036;-90
2023/04/04 07:46:19;;;;;;;4.60;3.08;;;4.80;99.90;;;;;;5077222;28;20135;-90
2023/04/04 07:48:44;;;;;;;6.10;2.97;;;6.40;99.90;;;;;;5093751;28;20040;-89
2023/04/04 07:51:11;;;;;;;6.10;3.13;;;6.20;99.90;;;;;;5076995;28;20051;-90
2023/04/04 07:53:37;;;;;;;6.95;2.63;;;7.00;99.90;;;;;;5061450;28;20139;-89
2023/04/04 07:56:05;;;;;;;9.38;3.70;;;7.20;99.90;;;;;;5076746;28;20444;-90
2023/04/04 07:58:34;;;;;;;5.90;3.55;;;6.80;99.90;;;;;;5044655;28;20089;-90
2023/04/04 08:01:00;;;;;;;8.30;3.47;;;6.90;99.90;;;;;;5076915;28;20040;-90
2023/04/04 08:03:26;;;;;;;7.78;3.03;;;7.10;99.90;;;;;;5076638;28;20062;-89
2023/04/04 08:05:52;;;;;;;8.98;3.08;;;6.00;99.90;;;;;;5058101;28;20037;-90
2023/04/04 08:08:17;;;;;;;8.25;3.42;;;7.40;99.90;;;;;;5057083;28;20040;-90
2023/04/04 08:10:48;;;;;;;6.65;3.35;;;7.50;99.90;;;;;;5057584;28;20500;-90
2023/04/04 08:13:14;;;;;;;10.38;2.85;;;7.60;99.90;;;;;;5041215;28;20076;-90
2023/04/04 08:15:40;;;;;;;7.43;3.03;;;7.60;99.90;;;;;;5057111;28;20040;-89
2023/04/04 08:18:06;;;;;;;5.82;2.72;;;7.50;99.90;;;;;;5061342;28;20072;-90
2023/04/04 08:20:32;;;;;;;6.80;2.40;;;7.60;99.90;;;;;;5068097;28;20044;-90
2023/04/04 08:22:57;;;;;;;6.80;2.72;;;7.70;99.90;;;;;;5057015;28;20119;-89
2023/04/04 08:25:24;;;;;;;4.50;2.50;;;7.80;99.90;;;;;;5073583;28;20041;-89
2023/04/04 08:27:50;;;;;;;3.97;2.22;;;7.80;99.90;;;;;;5056634;28;20048;-90
2023/04/04 08:30:15;;;;;;;5.53;2.20;;;7.90;99.90;;;;;;5056654;28;20047;-90
2023/04/04 08:32:44;;;;;;;4.10;2.20;;;8.00;99.90;;;;;;5072924;28;20059;-90
2023/04/04 08:35:11;;;;;;;4.68;2.20;;;8.70;99.90;;;;;;5082618;28;20044;-88
2023/04/04 08:37:38;;;;;;;6.15;2.45;;;8.20;99.90;;;;;;5082489;28;20032;-90
2023/04/04 08:40:05;;;;;;;7.50;2.40;;;8.20;99.90;;;;;;5077255;28;20040;-91
2023/04/04 08:42:34;;;;;;;8.48;2.28;;;8.90;99.90;;;;;;5076912;28;20051;-90
2023/04/04 08:45:03;;;;;;;3.83;2.20;;;8.10;99.90;;;;;;5077823;28;20040;-90
2023/04/04 08:47:32;;;;;;;8.77;2.50;;;8.20;99.90;;;;;;5075996;28;20069;-90
2023/04/04 08:50:00;;;;;;;4.70;2.20;;;8.40;99.50;;;;;;5076471;28;20040;-89
2023/04/04 08:52:27;;;;;;;3.28;1.70;;;8.20;98.70;;;;;;5076558;28;20510;-89
2023/04/04 08:54:53;;;;;;;3.70;1.77;;;8.10;98.80;;;;;;5076502;28;20360;-89
2023/04/04 08:57:19;;;;;;;5.07;2.30;;;8.20;97.50;;;;;;5060293;28;20632;-91
2023/04/04 08:59:46;;;;;;;6.28;2.05;;;8.10;97.70;;;;;;5059052;28;20040;-90
2023/04/04 09:02:37;;;;;;;5.00;1.80;;;8.30;97.90;;;;;;5076917;28;20040;-89
2023/04/04 09:05:03;;;;;;;5.85;2.25;;;8.10;97.40;;;;;;5076741;28;20097;-90
2023/04/04 09:07:30;;;;;;;3.70;1.85;;;8.10;98.00;;;;;;5076955;28;20047;-89
2023/04/04 09:09:57;;;;;;;6.22;2.00;;;8.20;97.80;;;;;;5076458;28;20373;-90
2023/04/04 09:12:24;;;;;;;5.38;2.30;;;8.80;98.00;;;;;;5076336;28;20036;-91
2023/04/04 09:14:52;;;;;;;6.75;1.80;;;8.40;96.90;;;;;;5076461;28;20079;-89
2023/04/04 09:17:18;;;;;;;6.03;1.77;;;8.50;96.30;;;;;;5076003;28;20040;-89
2023/04/04 09:19:44;;;;;;;4.45;1.90;;;8.50;95.50;;;;;;5059141;28;20122;-89
2023/04/04 09:22:10;;;;;;;7.55;2.28;;;8.50;95.20;;;;;;5076321;28;20102;-89
2023/04/04 09:24:38;;;;;;;3.75;2.15;;;8.60;96.10;;;;;;5077393;28;20040;-89
2023/04/04 09:27:05;;;;;;;6.75;2.10;;;8.70;95.80;;;;;;5092951;28;20597;-89
2023/04/04 09:29:33;;;;;;;8.02;2.47;;;8.70;94.60;;;;;;5076547;28;20032;-89
2023/04/04 09:31:59;;;;;;;4.35;2.00;;;8.70;95.40;;;;;;5065296;28;20055;-89
2023/04/04 09:34:25;;;;;;;5.03;2.40;;;8.80;95.00;;;;;;5040454;28;20125;-89
2023/04/04 09:36:52;;;;;;;4.60;2.10;;;8.90;95.20;;;;;;5043100;28;20040;-88
2023/04/04 09:39:19;;;;;;;4.65;2.05;;;9.10;95.20;;;;;;5044261;28;20055;-89
2023/04/04 09:41:46;;;;;;;7.10;2.65;;;9.40;95.40;;;;;;5043372;28;20139;-90
2023/04/04 09:44:12;;;;;;;6.50;1.88;;;9.70;93.90;;;;;;5044179;28;20032;-90
2023/04/04 09:46:39;;;;;;;6.22;2.03;;;9.90;91.70;;;;;;5062567;28;20024;-89
2023/04/04 09:49:09;;;;;;;4.03;1.92;;;9.90;92.80;;;;;;5086313;28;20053;-89
2023/04/04 09:51:36;;;;;;;5.47;1.88;;;10.10;93.00;;;;;;5072309;28;20098;-90
2023/04/04 09:54:02;;;;;;;5.30;2.50;;;10.30;91.90;;;;;;5064299;28;20122;-90
2023/04/04 09:56:28;;;;;;;5.15;2.25;;;10.30;91.00;;;;;;5064827;28;20496;-89
2023/04/04 09:58:54;;;;;;;4.90;2.20;;;10.30;90.90;;;;;;5064974;28;20032;-90
2023/04/04 10:01:20;;;;;;;4.30;2.00;;;10.40;91.00;;;;;;5044748;28;20040;-90
2023/04/04 10:03:53;;;;;;;7.43;2.10;;;10.10;89.20;;;;;;5042449;28;20370;-89
2023/04/04 10:06:22;;;;;;;4.65;2.13;;;10.60;86.80;;;;;;5042812;28;20036;-90
2023/04/04 10:08:48;;;;;;;5.90;2.13;;;10.60;86.80;;;;;;5043519;28;20037;-90
2023/04/04 10:11:28;;;;;;;5.70;2.60;;;10.50;88.60;;;;;;5043619;28;20033;-89
2023/04/04 10:13:56;;;;;;;5.88;2.35;;;10.50;85.70;;;;;;5043384;28;20036;-90
2023/04/04 10:16:24;;;;;;;4.60;2.25;;;10.50;88.70;;;;;;5048324;28;20380;-91
2023/04/04 10:18:51;;;;;;;5.78;2.40;;;10.50;87.40;;;;;;5062136;28;20043;-89
2023/04/04 10:21:17;;;;;;;5.63;2.05;;;10.60;88.80;;;;;;5062209;28;20078;-90
2023/04/04 10:23:48;;;;;;;5.63;2.45;;;10.80;85.40;;;;;;5062376;28;20036;-90
2023/04/04 10:26:14;;;;;;;3.75;2.30;;;10.90;83.10;;;;;;5045938;28;20032;-90
2023/04/04 10:28:44;;;;;;;3.60;2.25;;;10.90;83.90;;;;;;5062286;28;20055;-89
2023/04/04 10:31:18;;;;;;;6.05;2.80;;;11.00;85.70;;;;;;5061630;28;20051;-89
2023/04/04 10:33:59;;;;;;;6.97;2.60;;;11.10;85.30;;;;;;5058088;28;20056;-90
2023/04/04 10:36:30;;;;;;;5.30;2.35;;;11.30;85.10;;;;;;5076808;28;20048;-89
2023/04/04 10:39:26;;;;;;;4.90;2.13;;;11.30;82.40;;;;;;5077197;28;20044;-89
2023/04/04 10:41:54;;;;;;;6.70;2.67;;;11.30;83.00;;;;;;5061918;28;20136;-90
2023/04/04 10:44:33;;;;;;;10.30;2.78;;;11.30;83.00;;;;;;5079006;28;20040;-91
2023/04/04 10:47:13;;;;;;;4.18;2.47;;;11.30;82.00;;;;;;5062873;28;20392;-91
2023/04/04 10:49:42;;;;;;;4.40;2.22;;;11.30;82.00;;;;;;5079810;28;20044;-90
2023/04/04 10:52:10;;;;;;;6.45;2.50;;;11.30;82.10;;;;;;5079079;28;20606;-90
2023/04/04 10:54:36;;;;;;;3.78;2.28;;;12.20;79.90;;;;;;5081245;28;20096;-89
2023/04/04 10:57:02;;;;;;;4.63;2.40;;;11.60;79.30;;;;;;5079354;28;20044;-91
2023/04/04 10:59:28;;;;;;;7.13;2.55;;;11.70;79.60;;;;;;5082722;28;20135;-90
2023/04/04 11:01:56;;;;;;;7.85;2.80;;;11.60;80.00;;;;;;5090495;28;20040;-90
2023/04/04 11:04:31;;;;;;;4.57;2.45;;;11.50;79.70;;;;;;5102257;28;20043;-87
2023/04/04 11:07:09;;;;;;;4.18;2.45;;;11.70;79.50;;;;;;5095684;28;20040;-90
2023/04/04 11:09:49;;;;;;;3.70;2.40;;;11.80;78.40;;;;;;5079686;28;20089;-90
2023/04/04 11:12:22;;;;;;;4.95;2.20;;;11.80;80.70;;;;;;5079321;28;20031;-90
2023/04/04 11:14:55;;;;;;;7.22;2.50;;;11.80;81.40;;;;;;5079518;28;20086;-90
2023/04/04 11:17:50;;;;;;;6.32;2.60;;;11.90;81.90;;;;;;5079108;28;20052;-90
2023/04/04 11:20:39;;;;;;;4.82;2.25;;;12.00;80.60;;;;;;5077415;28;20075;-89
2023/04/04 11:23:13;;;;;;;4.72;2.33;;;12.10;82.20;;;;;;5096822;28;20036;-90
2023/04/04 11:25:53;;;;;;;5.65;2.25;;;12.20;81.80;;;;;;5078568;28;20040;-89
2023/04/04 11:28:41;;;;;;;8.15;2.38;;;12.40;79.20;;;;;;5078897;28;20079;-90
2023/04/04 11:31:17;;;;;;;5.20;1.92;;;12.50;80.40;;;;;;5079065;28;20051;-89
2023/04/04 11:34:05;;;;;;;6.47;2.63;;;12.70;79.80;;;;;;5078418;28;20054;-89
2023/04/04 11:36:34;;;;;;;3.10;2.05;;;12.80;79.10;;;;;;5067190;28;20286;-89
2023/04/04 11:39:10;;;;;;;6.07;2.80;;;12.90;76.00;;;;;;5074750;28;20040;-90
2023/04/04 11:41:43;;;;;;;8.05;2.75;;;12.90;73.10;;;;;;5075460;28;20384;-89
2023/04/04 11:44:10;;;;;;;6.10;2.80;;;12.80;76.20;;;;;;5043494;28;20368;-90
2023/04/04 11:46:36;;;;;;;4.60;2.38;;;12.80;76.00;;;;;;5074807;28;20028;-90
2023/04/04 11:49:03;;;;;;;5.03;2.35;;;12.90;76.40;;;;;;5058004;28;20127;-91
2023/04/04 11:51:32;;;;;;;5.35;2.75;;;12.90;75.20;;;;;;5058941;28;20106;-90
2023/04/04 11:53:58;;;;;;;5.75;2.40;;;12.90;74.00;;;;;;5078576;28;20036;-90
2023/04/04 11:56:24;;;;;;;7.00;2.72;;;12.90;75.10;;;;;;5077435;28;20036;-89
2023/04/04 11:58:50;;;;;;;3.83;2.40;;;12.80;75.20;;;;;;5078264;28;20131;-89
2023/04/04 12:01:18;;;;;;;4.57;2.60;;;12.80;74.90;;;;;;5076203;28;20040;-89
2023/04/04 12:03:44;;;;;;;13.27;2.60;;;12.80;74.30;;;;;;5076793;28;20096;-89
2023/04/04 12:06:15;;;;;;;6.07;2.75;;;12.90;73.00;;;;;;5076700;28;20512;-90
2023/04/04 12:08:41;;;;;;;5.93;2.47;;;13.00;73.40;;;;;;5078195;28;20036;-89
2023/04/04 12:11:10;;;;;;;4.47;2.40;;;13.10;73.50;;;;;;5077735;28;20039;-88
2023/04/04 12:13:47;;;;;;;4.88;2.20;;;13.40;73.10;;;;;;5072751;28;20044;-89
2023/04/04 12:16:13;;;;;;;5.82;2.45;;;13.60;71.20;;;;;;5063487;28;20024;-87
2023/04/04 12:18:38;;;;;;;5.95;2.95;;;13.60;70.90;;;;;;5080119;28;20055;-89
2023/04/04 12:21:06;;;;;;;4.50;2.17;;;13.70;71.20;;;;;;5064245;28;20044;-88
2023/04/04 12:23:33;;;;;;;4.95;2.97;;;13.70;71.70;;;;;;5057684;28;20044;-89
2023/04/04 12:26:02;;;;;;;4.72;2.75;;;13.90;71.50;;;;;;5057321;28;20508;-89
2023/04/04 12:28:30;;;;;;;5.22;2.40;;;14.00;70.40;;;;;;5069644;28;20036;-90
2023/04/04 12:30:56;;;;;;;7.88;2.45;;;14.00;68.40;;;;;;5077184;28;20087;-90
2023/04/04 12:33:22;;;;;;;4.60;2.55;;;14.00;66.30;;;;;;5076181;28;20538;-89
2023/04/04 12:35:52;;;;;;;3.70;2.22;;;13.70;65.30;;;;;;5076150;28;20090;-89
2023/04/04 12:38:18;;;;;;;5.95;2.40;;;13.60;63.00;;;;;;5076423;28;20036;-89
2023/04/04 12:40:45;;;;;;;4.55;2.45;;;13.40;63.20;;;;;;5076795;28;20036;-89
2023/04/04 12:43:16;;;;;;;6.22;2.83;;;13.20;64.20;;;;;;5076645;28;20043;-90
2023/04/04 12:45:43;;;;;;;7.22;2.60;;;13.40;66.40;;;;;;5077150;28;20032;-90
2023/04/04 12:48:12;;;;;;;4.93;2.72;;;13.50;66.40;;;;;;5060558;28;20066;-89
2023/04/04 12:50:59;;;;;;;6.70;3.05;;;13.60;67.10;;;;;;5077452;28;20032;-89
2023/04/04 12:53:31;;;;;;;5.28;2.50;;;13.70;67.40;;;;;;5061247;28;20059;-89
2023/04/04 12:56:03;;;;;;;3.88;2.40;;;14.00;68.40;;;;;;5075909;28;20129;-90
2023/04/04 12:58:30;;;;;;;5.22;2.50;;;14.40;66.40;;;;;;5076608;28;20044;-89